sensor_id;sensor_type;location;lat;lon;timestamp;pressure;altitude;pressure_sealevel;temperature;humidity
74973;BME280;63529;56.320;43.990;2023-02-02T00:01:09;99250.31;;;-1.23;69.12
74973;BME280;63529;56.320;43.990;2023-02-02T00:03:35;99247.09;;;-1.25;68.92
74973;BME280;63529;56.320;43.990;2023-02-02T00:06:02;99235.81;;;-1.26;69.02
74973;BME280;63529;56.320;43.990;2023-02-02T00:08:28;99243.66;;;-1.26;68.89
74973;BME280;63529;56.320;43.990;2023-02-02T00:10:54;99241.84;;;-1.25;69.02
74973;BME280;63529;56.320;43.990;2023-02-02T00:13:20;99242.47;;;-1.30;69.14
74973;BME280;63529;56.320;43.990;2023-02-02T00:15:46;99233.19;;;-1.32;69.06
74973;BME280;63529;56.320;43.990;2023-02-02T00:18:12;99240.03;;;-1.31;69.05
74973;BME280;63529;56.320;43.990;2023-02-02T00:20:38;99244.66;;;-1.33;69.16
74973;BME280;63529;56.320;43.990;2023-02-02T00:23:04;99229.53;;;-1.38;69.33
74973;BME280;63529;56.320;43.990;2023-02-02T00:25:30;99233.97;;;-1.39;69.34
74973;BME280;63529;56.320;43.990;2023-02-02T00:27:57;99229.97;;;-1.41;69.41
74973;BME280;63529;56.320;43.990;2023-02-02T00:30:22;99231.13;;;-1.44;69.42
74973;BME280;63529;56.320;43.990;2023-02-02T00:32:48;99231.13;;;-1.44;69.38
74973;BME280;63529;56.320;43.990;2023-02-02T00:35:16;99217.06;;;-1.49;69.53
74973;BME280;63529;56.320;43.990;2023-02-02T00:37:42;99222.31;;;-1.49;69.70
74973;BME280;63529;56.320;43.990;2023-02-02T00:40:09;99215.44;;;-1.50;69.72
74973;BME280;63529;56.320;43.990;2023-02-02T00:42:35;99217.66;;;-1.54;69.92
74973;BME280;63529;56.320;43.990;2023-02-02T00:45:02;99217.06;;;-1.56;69.76
74973;BME280;63529;56.320;43.990;2023-02-02T00:47:50;99212.19;;;-1.59;69.87
74973;BME280;63529;56.320;43.990;2023-02-02T00:50:18;99208.97;;;-1.61;70.08
74973;BME280;63529;56.320;43.990;2023-02-02T00:52:46;99213.63;;;-1.63;70.05
74973;BME280;63529;56.320;43.990;2023-02-02T00:55:13;99203.16;;;-1.63;70.19
74973;BME280;63529;56.320;43.990;2023-02-02T00:57:39;99208.78;;;-1.66;70.05
74973;BME280;63529;56.320;43.990;2023-02-02T01:00:08;99206.56;;;-1.69;70.26
74973;BME280;63529;56.320;43.990;2023-02-02T01:02:34;99211.38;;;-1.73;70.21
74973;BME280;63529;56.320;43.990;2023-02-02T01:05:00;99205.34;;;-1.73;70.52
74973;BME280;63529;56.320;43.990;2023-02-02T01:07:28;99216.19;;;-1.76;70.55
74973;BME280;63529;56.320;43.990;2023-02-02T01:09:55;99202.91;;;-1.81;70.57
74973;BME280;63529;56.320;43.990;2023-02-02T01:12:21;99209.16;;;-1.82;70.88
74973;BME280;63529;56.320;43.990;2023-02-02T01:14:48;99203.28;;;-1.84;70.95
74973;BME280;63529;56.320;43.990;2023-02-02T01:17:14;99202.47;;;-1.85;71.08
74973;BME280;63529;56.320;43.990;2023-02-02T01:19:39;99201.88;;;-1.87;71.03
74973;BME280;63529;56.320;43.990;2023-02-02T01:22:06;99212.53;;;-1.88;71.12
74973;BME280;63529;56.320;43.990;2023-02-02T01:24:33;99210.72;;;-1.88;71.11
74973;BME280;63529;56.320;43.990;2023-02-02T01:26:59;99213.53;;;-1.89;71.08
74973;BME280;63529;56.320;43.990;2023-02-02T01:29:25;99209.50;;;-1.92;71.17
74973;BME280;63529;56.320;43.990;2023-02-02T01:31:51;99217.34;;;-1.92;71.41
74973;BME280;63529;56.320;43.990;2023-02-02T01:34:17;99211.31;;;-1.93;71.36
74973;BME280;63529;56.320;43.990;2023-02-02T01:36:43;99214.13;;;-1.94;71.11
74973;BME280;63529;56.320;43.990;2023-02-02T01:39:09;99215.31;;;-1.97;71.26
74973;BME280;63529;56.320;43.990;2023-02-02T01:41:35;99212.69;;;-1.97;71.49
74973;BME280;63529;56.320;43.990;2023-02-02T01:44:03;99209.47;;;-1.99;71.66
74973;BME280;63529;56.320;43.990;2023-02-02T01:46:32;99208.69;;;-1.99;71.55
74973;BME280;63529;56.320;43.990;2023-02-02T01:49:14;99203.44;;;-1.99;71.91
74973;BME280;63529;56.320;43.990;2023-02-02T01:51:50;99213.31;;;-2.01;71.69
74973;BME280;63529;56.320;43.990;2023-02-02T01:54:29;99204.66;;;-2.02;71.98
74973;BME280;63529;56.320;43.990;2023-02-02T01:57:00;99208.88;;;-2.01;71.98
74973;BME280;63529;56.320;43.990;2023-02-02T01:59:27;99213.31;;;-2.01;71.88
74973;BME280;63529;56.320;43.990;2023-02-02T02:01:54;99222.75;;;-2.00;72.06
74973;BME280;63529;56.320;43.990;2023-02-02T02:04:23;99219.34;;;-2.01;71.88
74973;BME280;63529;56.320;43.990;2023-02-02T02:06:50;99211.88;;;-2.04;72.02
74973;BME280;63529;56.320;43.990;2023-02-02T02:09:19;99206.03;;;-2.06;72.10
74973;BME280;63529;56.320;43.990;2023-02-02T02:11:44;99213.88;;;-2.06;72.23
74973;BME280;63529;56.320;43.990;2023-02-02T02:14:11;99210.84;;;-2.09;72.31
74973;BME280;63529;56.320;43.990;2023-02-02T02:17:13;99223.91;;;-2.09;72.29
74973;BME280;63529;56.320;43.990;2023-02-02T02:20:23;99229.13;;;-2.09;72.47
74973;BME280;63529;56.320;43.990;2023-02-02T02:37:48;99231.31;;;-2.20;72.46
74973;BME280;63529;56.320;43.990;2023-02-02T02:40:21;99227.09;;;-2.21;72.77
74973;BME280;63529;56.320;43.990;2023-02-02T02:42:54;99229.50;;;-2.19;72.74
74973;BME280;63529;56.320;43.990;2023-02-02T02:45:23;99218.63;;;-2.23;72.61
74973;BME280;63529;56.320;43.990;2023-02-02T02:47:51;99226.28;;;-2.21;72.67
74973;BME280;63529;56.320;43.990;2023-02-02T02:50:19;99218.63;;;-2.23;72.80
74973;BME280;63529;56.320;43.990;2023-02-02T02:52:46;99220.63;;;-2.25;72.76
74973;BME280;63529;56.320;43.990;2023-02-02T02:55:14;99231.09;;;-2.25;72.89
74973;BME280;63529;56.320;43.990;2023-02-02T02:58:08;99238.13;;;-2.25;72.92
74973;BME280;63529;56.320;43.990;2023-02-02T03:00:39;99233.69;;;-2.25;72.79
74973;BME280;63529;56.320;43.990;2023-02-02T03:08:32;99230.06;;;-2.30;72.95
74973;BME280;63529;56.320;43.990;2023-02-02T03:11:00;99235.28;;;-2.30;72.46
74973;BME280;63529;56.320;43.990;2023-02-02T03:13:29;99231.25;;;-2.33;72.55
74973;BME280;63529;56.320;43.990;2023-02-02T03:15:56;99234.25;;;-2.36;72.37
74973;BME280;63529;56.320;43.990;2023-02-02T03:18:25;99223.19;;;-2.38;72.46
74973;BME280;63529;56.320;43.990;2023-02-02T03:20:52;99221.78;;;-2.40;72.55
74973;BME280;63529;56.320;43.990;2023-02-02T03:23:18;99222.94;;;-2.43;72.39
74973;BME280;63529;56.320;43.990;2023-02-02T03:25:44;99217.31;;;-2.47;72.51
74973;BME280;63529;56.320;43.990;2023-02-02T03:28:10;99217.69;;;-2.50;72.76
74973;BME280;63529;56.320;43.990;2023-02-02T03:30:37;99222.72;;;-2.48;72.66
74973;BME280;63529;56.320;43.990;2023-02-02T03:33:05;99221.09;;;-2.49;72.58
74973;BME280;63529;56.320;43.990;2023-02-02T03:35:32;99222.91;;;-2.50;72.59
74973;BME280;63529;56.320;43.990;2023-02-02T03:37:58;99218.69;;;-2.51;72.59
74973;BME280;63529;56.320;43.990;2023-02-02T03:40:23;99223.31;;;-2.53;72.52
74973;BME280;63529;56.320;43.990;2023-02-02T03:42:49;99225.91;;;-2.53;72.24
74973;BME280;63529;56.320;43.990;2023-02-02T03:45:15;99227.91;;;-2.55;72.53
74973;BME280;63529;56.320;43.990;2023-02-02T03:47:42;99225.69;;;-2.58;72.33
74973;BME280;63529;56.320;43.990;2023-02-02T03:50:08;99229.31;;;-2.59;72.07
74973;BME280;63529;56.320;43.990;2023-02-02T03:52:34;99229.66;;;-2.62;72.34
74973;BME280;63529;56.320;43.990;2023-02-02T03:55:00;99233.47;;;-2.64;72.17
74973;BME280;63529;56.320;43.990;2023-02-02T03:57:26;99227.44;;;-2.65;72.29
74973;BME280;63529;56.320;43.990;2023-02-02T03:59:53;99230.88;;;-2.64;72.36
74973;BME280;63529;56.320;43.990;2023-02-02T04:02:18;99235.09;;;-2.63;72.29
74973;BME280;63529;56.320;43.990;2023-02-02T04:04:44;99225.84;;;-2.66;72.45
74973;BME280;63529;56.320;43.990;2023-02-02T04:07:10;99232.69;;;-2.65;72.02
74973;BME280;63529;56.320;43.990;2023-02-02T04:09:36;99227.44;;;-2.65;72.40
74973;BME280;63529;56.320;43.990;2023-02-02T04:12:02;99238.25;;;-2.68;72.17
74973;BME280;63529;56.320;43.990;2023-02-02T04:14:28;99231.22;;;-2.67;72.16
74973;BME280;63529;56.320;43.990;2023-02-02T04:16:54;99229.44;;;-2.67;72.12
74973;BME280;63529;56.320;43.990;2023-02-02T04:19:20;99232.22;;;-2.68;71.96
74973;BME280;63529;56.320;43.990;2023-02-02T04:21:45;99227.00;;;-2.68;72.06
74973;BME280;63529;56.320;43.990;2023-02-02T04:24:12;99224.78;;;-2.71;72.08
74973;BME280;63529;56.320;43.990;2023-02-02T04:26:39;99231.81;;;-2.72;71.99
74973;BME280;63529;56.320;43.990;2023-02-02T04:29:05;99236.25;;;-2.72;72.17
74973;BME280;63529;56.320;43.990;2023-02-02T04:31:31;99235.44;;;-2.73;72.16
74973;BME280;63529;56.320;43.990;2023-02-02T04:33:58;99234.63;;;-2.74;72.17
74973;BME280;63529;56.320;43.990;2023-02-02T04:36:24;99233.81;;;-2.74;72.27
74973;BME280;63529;56.320;43.990;2023-02-02T04:38:52;99244.88;;;-2.72;72.30
74973;BME280;63529;56.320;43.990;2023-02-02T04:41:18;99237.84;;;-2.71;72.24
74973;BME280;63529;56.320;43.990;2023-02-02T04:43:45;99244.69;;;-2.70;72.06
74973;BME280;63529;56.320;43.990;2023-02-02T04:46:12;99231.03;;;-2.72;72.41
74973;BME280;63529;56.320;43.990;2023-02-02T04:48:39;99233.44;;;-2.71;72.01
74973;BME280;63529;56.320;43.990;2023-02-02T04:51:13;99229.81;;;-2.70;72.25
74973;BME280;63529;56.320;43.990;2023-02-02T04:53:40;99223.78;;;-2.70;72.13
74973;BME280;63529;56.320;43.990;2023-02-02T04:56:08;99227.81;;;-2.68;72.27
74973;BME280;63529;56.320;43.990;2023-02-02T04:58:34;99233.84;;;-2.67;71.99
74973;BME280;63529;56.320;43.990;2023-02-02T05:01:00;99232.22;;;-2.68;71.99
74973;BME280;63529;56.320;43.990;2023-02-02T05:03:26;99243.50;;;-2.68;71.94
74973;BME280;63529;56.320;43.990;2023-02-02T05:06:00;99242.06;;;-2.70;72.02
74973;BME280;63529;56.320;43.990;2023-02-02T05:08:27;99257.94;;;-2.72;71.83
74973;BME280;63529;56.320;43.990;2023-02-02T05:10:53;99245.88;;;-2.73;71.59
74973;BME280;63529;56.320;43.990;2023-02-02T05:13:19;99250.91;;;-2.71;71.99
74973;BME280;63529;56.320;43.990;2023-02-02T05:15:44;99241.63;;;-2.74;71.83
74973;BME280;63529;56.320;43.990;2023-02-02T05:18:10;99249.47;;;-2.74;71.60
74973;BME280;63529;56.320;43.990;2023-02-02T05:20:36;99248.88;;;-2.76;71.69
74973;BME280;63529;56.320;43.990;2023-02-02T05:23:02;99252.91;;;-2.74;71.92
74973;BME280;63529;56.320;43.990;2023-02-02T05:25:28;99244.25;;;-2.74;71.72
74973;BME280;63529;56.320;43.990;2023-02-02T05:27:54;99241.63;;;-2.74;71.75
74973;BME280;63529;56.320;43.990;2023-02-02T05:30:20;99243.88;;;-2.71;71.75
74973;BME280;63529;56.320;43.990;2023-02-02T05:32:45;99238.25;;;-2.68;71.66
74973;BME280;63529;56.320;43.990;2023-02-02T05:35:11;99238.25;;;-2.68;71.50
74973;BME280;63529;56.320;43.990;2023-02-02T05:37:37;99242.50;;;-2.67;71.66
74973;BME280;63529;56.320;43.990;2023-02-02T05:40:03;99233.47;;;-2.64;71.70
74973;BME280;63529;56.320;43.990;2023-02-02T05:42:29;99233.09;;;-2.61;71.62
74973;BME280;63529;56.320;43.990;2023-02-02T05:44:55;99243.53;;;-2.61;71.51
74973;BME280;63529;56.320;43.990;2023-02-02T05:47:21;99239.56;;;-2.57;71.45
74973;BME280;63529;56.320;43.990;2023-02-02T05:49:48;99250.44;;;-2.54;71.30
74973;BME280;63529;56.320;43.990;2023-02-02T05:52:17;99241.59;;;-2.53;71.43
74973;BME280;63529;56.320;43.990;2023-02-02T05:54:44;99239.22;;;-2.48;71.26
74973;BME280;63529;56.320;43.990;2023-02-02T05:57:10;99248.47;;;-2.45;71.42
74973;BME280;63529;56.320;43.990;2023-02-02T05:59:36;99246.91;;;-2.39;71.15
74973;BME280;63529;56.320;43.990;2023-02-02T06:02:02;99255.94;;;-2.35;71.05
74973;BME280;63529;56.320;43.990;2023-02-02T06:04:28;99257.00;;;-2.30;70.80
74973;BME280;63529;56.320;43.990;2023-02-02T06:06:53;99262.25;;;-2.23;70.97
74973;BME280;63529;56.320;43.990;2023-02-02T06:09:19;99263.28;;;-2.17;70.73
74973;BME280;63529;56.320;43.990;2023-02-02T06:11:45;99271.97;;;-2.10;70.58
74973;BME280;63529;56.320;43.990;2023-02-02T06:14:11;99278.25;;;-2.05;70.79
74973;BME280;63529;56.320;43.990;2023-02-02T06:16:37;99264.81;;;-1.95;70.38
74973;BME280;63529;56.320;43.990;2023-02-02T06:19:03;99272.50;;;-1.87;70.63
74973;BME280;63529;56.320;43.990;2023-02-02T06:21:30;99270.31;;;-1.77;70.29
74973;BME280;63529;56.320;43.990;2023-02-02T06:23:56;99270.31;;;-1.70;69.88
74973;BME280;63529;56.320;43.990;2023-02-02T06:26:23;99266.94;;;-1.64;69.75
74973;BME280;63529;56.320;43.990;2023-02-02T06:28:51;99264.31;;;-1.57;69.78
74973;BME280;63529;56.320;43.990;2023-02-02T06:31:18;99264.97;;;-1.49;69.46
74973;BME280;63529;56.320;43.990;2023-02-02T06:33:45;99258.31;;;-1.45;69.08
74973;BME280;63529;56.320;43.990;2023-02-02T06:36:11;99268.63;;;-1.37;68.96
74973;BME280;63529;56.320;43.990;2023-02-02T06:38:37;99265.81;;;-1.35;68.65
74973;BME280;63529;56.320;43.990;2023-02-02T06:41:06;99259.13;;;-1.38;68.81
74973;BME280;63529;56.320;43.990;2023-02-02T06:43:32;99261.16;;;-1.33;68.77
74973;BME280;63529;56.320;43.990;2023-02-02T06:45:59;99262.41;;;-1.29;68.63
74973;BME280;63529;56.320;43.990;2023-02-02T06:48:25;99265.81;;;-1.28;68.52
74973;BME280;63529;56.320;43.990;2023-02-02T06:50:51;99267.22;;;-1.26;68.41
74973;BME280;63529;56.320;43.990;2023-02-02T06:53:18;99263.41;;;-1.23;68.35
74973;BME280;63529;56.320;43.990;2023-02-02T06:55:57;99268.03;;;-1.19;68.22
74973;BME280;63529;56.320;43.990;2023-02-02T06:58:24;99269.66;;;-1.11;68.13
74973;BME280;63529;56.320;43.990;2023-02-02T07:00:49;99263.00;;;-1.07;67.83
74973;BME280;63529;56.320;43.990;2023-02-02T07:03:16;99255.56;;;-1.03;67.80
74973;BME280;63529;56.320;43.990;2023-02-02T07:05:42;99269.06;;;-1.00;67.87
74973;BME280;63529;56.320;43.990;2023-02-02T07:08:10;99256.59;;;-0.98;67.48
74973;BME280;63529;56.320;43.990;2023-02-02T07:10:36;99262.22;;;-0.94;67.62
74973;BME280;63529;56.320;43.990;2023-02-02T07:13:03;99254.97;;;-0.92;67.25
74973;BME280;63529;56.320;43.990;2023-02-02T07:15:34;99260.81;;;-0.90;67.45
74973;BME280;63529;56.320;43.990;2023-02-02T07:18:00;99249.34;;;-0.89;67.21
74973;BME280;63529;56.320;43.990;2023-02-02T07:20:27;99254.97;;;-0.86;67.03
74973;BME280;63529;56.320;43.990;2023-02-02T07:22:53;99258.19;;;-0.84;67.09
74973;BME280;63529;56.320;43.990;2023-02-02T07:25:19;99259.81;;;-0.83;66.90
74973;BME280;63529;56.320;43.990;2023-02-02T07:27:44;99254.97;;;-0.86;66.93
74973;BME280;63529;56.320;43.990;2023-02-02T07:30:12;99255.75;;;-0.85;66.81
74973;BME280;63529;56.320;43.990;2023-02-02T07:32:38;99259.41;;;-0.86;66.79
74973;BME280;63529;56.320;43.990;2023-02-02T07:35:05;99270.66;;;-0.86;66.80
74973;BME280;63529;56.320;43.990;2023-02-02T07:37:31;99271.69;;;-0.87;66.98
74973;BME280;63529;56.320;43.990;2023-02-02T07:39:56;99271.47;;;-0.85;67.22
74973;BME280;63529;56.320;43.990;2023-02-02T07:42:22;99268.69;;;-0.84;67.02
74973;BME280;63529;56.320;43.990;2023-02-02T07:44:48;99272.31;;;-0.78;67.12
74973;BME280;63529;56.320;43.990;2023-02-02T07:47:14;99268.25;;;-0.74;66.96
74973;BME280;63529;56.320;43.990;2023-02-02T07:49:41;99274.31;;;-0.67;66.51
74973;BME280;63529;56.320;43.990;2023-02-02T07:52:07;99275.31;;;-0.61;66.58
74973;BME280;63529;56.320;43.990;2023-02-02T07:54:33;99276.31;;;-0.56;66.59
74973;BME280;63529;56.320;43.990;2023-02-02T07:56:59;99267.84;;;-0.51;66.44
74973;BME280;63529;56.320;43.990;2023-02-02T07:59:26;99268.84;;;-0.45;66.44
74973;BME280;63529;56.320;43.990;2023-02-02T08:01:52;99275.06;;;-0.40;66.23
74973;BME280;63529;56.320;43.990;2023-02-02T08:04:18;99281.13;;;-0.39;66.21
74973;BME280;63529;56.320;43.990;2023-02-02T08:06:44;99276.72;;;-0.39;66.15
74973;BME280;63529;56.320;43.990;2023-02-02T08:09:10;99275.28;;;-0.41;66.01
74973;BME280;63529;56.320;43.990;2023-02-02T08:11:37;99275.50;;;-0.43;66.01
74973;BME280;63529;56.320;43.990;2023-02-02T08:14:04;99274.28;;;-0.40;65.77
74973;BME280;63529;56.320;43.990;2023-02-02T08:16:31;99267.19;;;-0.33;65.67
74973;BME280;63529;56.320;43.990;2023-02-02T08:18:57;99286.13;;;-0.18;65.57
74973;BME280;63529;56.320;43.990;2023-02-02T08:21:23;99274.38;;;-0.02;65.25
74973;BME280;63529;56.320;43.990;2023-02-02T08:23:51;99287.06;;;0.14;64.83
74973;BME280;63529;56.320;43.990;2023-02-02T08:26:27;99282.56;;;0.28;64.44
74973;BME280;63529;56.320;43.990;2023-02-02T08:28:59;99280.50;;;0.37;63.87
74973;BME280;63529;56.320;43.990;2023-02-02T08:31:30;99289.56;;;0.41;63.52
74973;BME280;63529;56.320;43.990;2023-02-02T08:33:57;99288.56;;;0.42;63.33
74973;BME280;63529;56.320;43.990;2023-02-02T08:36:24;99286.31;;;0.39;63.31
74973;BME280;63529;56.320;43.990;2023-02-02T08:38:51;99290.63;;;0.33;63.35
74973;BME280;63529;56.320;43.990;2023-02-02T08:41:19;99287.00;;;0.28;63.55
74973;BME280;63529;56.320;43.990;2023-02-02T08:43:45;99294.44;;;0.31;63.45
74973;BME280;63529;56.320;43.990;2023-02-02T08:46:13;99283.34;;;0.29;63.31
74973;BME280;63529;56.320;43.990;2023-02-02T08:48:39;99287.59;;;0.30;63.26
74973;BME280;63529;56.320;43.990;2023-02-02T08:51:07;99287.38;;;0.31;63.06
74973;BME280;63529;56.320;43.990;2023-02-02T08:53:33;99287.78;;;0.35;63.00
74973;BME280;63529;56.320;43.990;2023-02-02T08:56:03;99290.81;;;0.32;63.17
74973;BME280;63529;56.320;43.990;2023-02-02T08:58:31;99298.69;;;0.32;63.22
74973;BME280;63529;56.320;43.990;2023-02-02T09:01:24;99297.88;;;0.31;63.46
74973;BME280;63529;56.320;43.990;2023-02-02T09:03:55;99303.53;;;0.35;63.56
74973;BME280;63529;56.320;43.990;2023-02-02T09:06:37;99300.06;;;0.41;63.16
74973;BME280;63529;56.320;43.990;2023-02-02T09:09:05;99302.88;;;0.46;62.99
74973;BME280;63529;56.320;43.990;2023-02-02T09:11:31;99300.84;;;0.48;63.43
74973;BME280;63529;56.320;43.990;2023-02-02T09:13:58;99294.97;;;0.52;62.89
74973;BME280;63529;56.320;43.990;2023-02-02T09:16:26;99309.06;;;0.58;62.68
74973;BME280;63529;56.320;43.990;2023-02-02T09:18:53;99290.84;;;0.63;62.73
74973;BME280;63529;56.320;43.990;2023-02-02T09:21:20;99298.47;;;0.71;62.60
74973;BME280;63529;56.320;43.990;2023-02-02T09:23:47;99304.31;;;0.80;62.32
74973;BME280;63529;56.320;43.990;2023-02-02T09:26:21;99303.59;;;0.98;62.34
74973;BME280;63529;56.320;43.990;2023-02-02T09:28:52;99308.28;;;1.21;62.14
74973;BME280;63529;56.320;43.990;2023-02-02T09:31:19;99305.88;;;1.44;61.83
74973;BME280;63529;56.320;43.990;2023-02-02T09:33:45;99311.09;;;1.69;61.04
74973;BME280;63529;56.320;43.990;2023-02-02T09:36:16;99297.81;;;1.82;60.45
74973;BME280;63529;56.320;43.990;2023-02-02T09:38:42;99298.63;;;1.83;59.89
74973;BME280;63529;56.320;43.990;2023-02-02T09:49:06;99298.28;;;1.98;59.46
74973;BME280;63529;56.320;43.990;2023-02-02T09:51:40;99299.06;;;1.98;59.37
74973;BME280;63529;56.320;43.990;2023-02-02T09:56:44;99301.13;;;1.96;59.01
74973;BME280;63529;56.320;43.990;2023-02-02T09:59:22;99310.47;;;1.92;58.77
74973;BME280;63529;56.320;43.990;2023-02-02T10:01:52;99310.97;;;1.82;58.86
74973;BME280;63529;56.320;43.990;2023-02-02T10:04:35;99322.50;;;1.81;58.99
74973;BME280;63529;56.320;43.990;2023-02-02T10:07:30;99300.25;;;1.84;59.23
74973;BME280;63529;56.320;43.990;2023-02-02T10:09:56;99309.34;;;1.81;58.94
74973;BME280;63529;56.320;43.990;2023-02-02T10:17:43;99315.84;;;1.35;59.33
74973;BME280;63529;56.320;43.990;2023-02-02T10:23:24;99316.22;;;1.14;59.94
74973;BME280;63529;56.320;43.990;2023-02-02T10:25:56;99312.03;;;1.06;60.30
74973;BME280;63529;56.320;43.990;2023-02-02T10:28:41;99309.44;;;1.00;60.12
74973;BME280;63529;56.320;43.990;2023-02-02T10:34:00;99321.06;;;0.86;60.61
74973;BME280;63529;56.320;43.990;2023-02-02T10:36:55;99319.28;;;0.79;61.01
74973;BME280;63529;56.320;43.990;2023-02-02T10:45:22;99322.31;;;0.76;61.73
74973;BME280;63529;56.320;43.990;2023-02-02T10:47:49;99299.31;;;0.72;61.32
74973;BME280;63529;56.320;43.990;2023-02-02T10:50:18;99313.03;;;0.74;61.36
74973;BME280;63529;56.320;43.990;2023-02-02T10:52:52;99301.97;;;0.65;61.58
74973;BME280;63529;56.320;43.990;2023-02-02T10:57:57;99309.31;;;0.50;61.54
74973;BME280;63529;56.320;43.990;2023-02-02T11:00:40;99315.38;;;0.44;61.93
74973;BME280;63529;56.320;43.990;2023-02-02T11:03:14;99312.19;;;0.42;62.40
74973;BME280;63529;56.320;43.990;2023-02-02T11:05:41;99322.88;;;0.47;62.56
74973;BME280;63529;56.320;43.990;2023-02-02T11:08:39;99324.84;;;0.51;62.14
74973;BME280;63529;56.320;43.990;2023-02-02T11:11:20;99323.38;;;0.62;62.25
74973;BME280;63529;56.320;43.990;2023-02-02T11:18:44;99324.66;;;0.85;61.79
74973;BME280;63529;56.320;43.990;2023-02-02T11:26:23;99327.47;;;0.90;61.43
74973;BME280;63529;56.320;43.990;2023-02-02T11:28:52;99330.72;;;0.92;61.17
74973;BME280;63529;56.320;43.990;2023-02-02T11:31:38;99336.34;;;0.95;61.66
74973;BME280;63529;56.320;43.990;2023-02-02T11:34:26;99337.16;;;0.96;61.19
74973;BME280;63529;56.320;43.990;2023-02-02T11:37:10;99339.78;;;0.96;61.30
74973;BME280;63529;56.320;43.990;2023-02-02T11:39:41;99348.50;;;0.90;61.23
74973;BME280;63529;56.320;43.990;2023-02-02T11:42:19;99345.31;;;0.81;61.40
74973;BME280;63529;56.320;43.990;2023-02-02T11:44:50;99345.75;;;0.71;61.38
74973;BME280;63529;56.320;43.990;2023-02-02T11:47:24;99353.88;;;0.63;62.03
74973;BME280;63529;56.320;43.990;2023-02-02T11:49:52;99352.09;;;0.57;62.31
74973;BME280;63529;56.320;43.990;2023-02-02T11:52:22;99353.53;;;0.53;62.46
74973;BME280;63529;56.320;43.990;2023-02-02T11:54:57;99361.00;;;0.49;62.76
74973;BME280;63529;56.320;43.990;2023-02-02T11:57:26;99361.03;;;0.43;62.87
74973;BME280;63529;56.320;43.990;2023-02-02T12:00:25;99366.09;;;0.38;62.76
74973;BME280;63529;56.320;43.990;2023-02-02T12:02:52;99377.22;;;0.33;63.12
74973;BME280;63529;56.320;43.990;2023-02-02T12:07:45;99376.25;;;0.21;63.06
74973;BME280;63529;56.320;43.990;2023-02-02T12:21:00;99367.22;;;-0.10;63.89
74973;BME280;63529;56.320;43.990;2023-02-02T12:26:24;99374.50;;;-0.18;64.46
74973;BME280;63529;56.320;43.990;2023-02-02T12:35:40;99379.13;;;-0.34;64.52
74973;BME280;63529;56.320;43.990;2023-02-02T12:43:45;99390.03;;;-0.50;64.93
74973;BME280;63529;56.320;43.990;2023-02-02T12:46:24;99389.22;;;-0.57;65.10
74973;BME280;63529;56.320;43.990;2023-02-02T13:05:37;99415.59;;;-0.72;66.43
74973;BME280;63529;56.320;43.990;2023-02-02T13:08:11;99423.06;;;-0.69;66.37
74973;BME280;63529;56.320;43.990;2023-02-02T13:10:42;99431.94;;;-0.70;66.23
74973;BME280;63529;56.320;43.990;2023-02-02T13:13:11;99434.34;;;-0.68;66.35
74973;BME280;63529;56.320;43.990;2023-02-02T13:15:42;99445.03;;;-0.70;66.65
74973;BME280;63529;56.320;43.990;2023-02-02T13:18:39;99450.66;;;-0.73;66.72
74973;BME280;63529;56.320;43.990;2023-02-02T13:21:12;99451.88;;;-0.75;66.46
74973;BME280;63529;56.320;43.990;2023-02-02T13:23:45;99444.00;;;-0.82;66.69
74973;BME280;63529;56.320;43.990;2023-02-02T13:26:25;99445.22;;;-0.85;67.02
74973;BME280;63529;56.320;43.990;2023-02-02T13:29:01;99438.75;;;-0.89;66.97
74973;BME280;63529;56.320;43.990;2023-02-02T13:34:20;99452.44;;;-0.93;67.17
74973;BME280;63529;56.320;43.990;2023-02-02T13:36:57;99446.78;;;-0.97;67.46
74973;BME280;63529;56.320;43.990;2023-02-02T13:39:41;99457.63;;;-1.00;67.26
74973;BME280;63529;56.320;43.990;2023-02-02T13:42:45;99445.75;;;-1.02;67.66
74973;BME280;63529;56.320;43.990;2023-02-02T13:57:37;99438.88;;;-1.10;67.82
74973;BME280;63529;56.320;43.990;2023-02-02T14:00:28;99436.03;;;-1.15;67.81
74973;BME280;63529;56.320;43.990;2023-02-02T14:03:04;99429.78;;;-1.14;67.92
74973;BME280;63529;56.320;43.990;2023-02-02T14:05:34;99434.81;;;-1.19;67.93
74973;BME280;63529;56.320;43.990;2023-02-02T14:10:56;99430.53;;;-1.27;68.11
74973;BME280;63529;56.320;43.990;2023-02-02T14:13:41;99431.31;;;-1.33;68.17
74973;BME280;63529;56.320;43.990;2023-02-02T14:18:59;99442.38;;;-1.38;68.67
74973;BME280;63529;56.320;43.990;2023-02-02T14:23:59;99446.41;;;-1.42;68.72
74973;BME280;63529;56.320;43.990;2023-02-02T14:26:44;99450.00;;;-1.43;68.90
74973;BME280;63529;56.320;43.990;2023-02-02T14:34:43;99450.59;;;-1.47;69.18
74973;BME280;63529;56.320;43.990;2023-02-02T14:43:15;99453.78;;;-1.52;69.76
74973;BME280;63529;56.320;43.990;2023-02-02T14:51:30;99454.78;;;-1.53;70.01
74973;BME280;63529;56.320;43.990;2023-02-02T14:53:57;99462.63;;;-1.53;69.99
74973;BME280;63529;56.320;43.990;2023-02-02T14:56:45;99465.44;;;-1.54;69.94
74973;BME280;63529;56.320;43.990;2023-02-02T14:59:36;99471.84;;;-1.57;70.02
74973;BME280;63529;56.320;43.990;2023-02-02T15:04:36;99461.78;;;-1.60;70.08
74973;BME280;63529;56.320;43.990;2023-02-02T15:09:56;99466.16;;;-1.67;70.20
74973;BME280;63529;56.320;43.990;2023-02-02T15:15:18;99462.50;;;-1.73;70.26
74973;BME280;63529;56.320;43.990;2023-02-02T15:18:10;99468.94;;;-1.75;70.47
74973;BME280;63529;56.320;43.990;2023-02-02T15:20:45;99461.25;;;-1.77;70.45
74973;BME280;63529;56.320;43.990;2023-02-02T15:23:39;99478.75;;;-1.77;70.50
74973;BME280;63529;56.320;43.990;2023-02-02T15:26:18;99483.19;;;-1.78;70.60
74973;BME280;63529;56.320;43.990;2023-02-02T15:28:55;99476.53;;;-1.80;70.79
74973;BME280;63529;56.320;43.990;2023-02-02T15:31:43;99477.34;;;-1.80;70.75
74973;BME280;63529;56.320;43.990;2023-02-02T15:36:47;99482.78;;;-1.81;71.08
74973;BME280;63529;56.320;43.990;2023-02-02T15:41:51;99491.63;;;-1.82;71.07
74973;BME280;63529;56.320;43.990;2023-02-02T15:44:36;99506.69;;;-1.84;71.20
74973;BME280;63529;56.320;43.990;2023-02-02T15:47:07;99501.09;;;-1.81;71.08